sensor_id;sensor_type;location;lat;lon;timestamp;P1;durP1;ratioP1;P2;durP2;ratioP2
57327;SDS011;43162;51.040;18.244;2023-08-17T00:12:24;19.90;;;14.80;;
57327;SDS011;43162;51.040;18.244;2023-08-17T00:15:22;20.40;;;14.10;;
57327;SDS011;43162;51.040;18.244;2023-08-17T00:17:48;17.80;;;14.10;;
57327;SDS011;43162;51.040;18.244;2023-08-17T00:20:13;16.40;;;13.30;;
57327;SDS011;43162;51.040;18.244;2023-08-17T00:22:39;15.20;;;13.60;;
57327;SDS011;43162;51.040;18.244;2023-08-17T00:25:04;16.60;;;14.20;;
57327;SDS011;43162;51.040;18.244;2023-08-17T00:27:33;20.30;;;14.50;;
57327;SDS011;43162;51.040;18.244;2023-08-17T00:29:59;15.80;;;14.00;;
57327;SDS011;43162;51.040;18.244;2023-08-17T00:32:24;19.60;;;16.30;;
57327;SDS011;43162;51.040;18.244;2023-08-17T00:34:50;25.80;;;18.20;;
57327;SDS011;43162;51.040;18.244;2023-08-17T00:37:16;19.40;;;17.10;;
57327;SDS011;43162;51.040;18.244;2023-08-17T00:39:41;20.80;;;18.70;;
57327;SDS011;43162;51.040;18.244;2023-08-17T00:42:07;20.80;;;18.60;;
57327;SDS011;43162;51.040;18.244;2023-08-17T00:44:33;25.70;;;19.20;;
57327;SDS011;43162;51.040;18.244;2023-08-17T00:46:59;22.20;;;20.00;;
57327;SDS011;43162;51.040;18.244;2023-08-17T00:49:24;22.20;;;19.80;;
57327;SDS011;43162;51.040;18.244;2023-08-17T00:51:51;21.30;;;19.00;;
57327;SDS011;43162;51.040;18.244;2023-08-17T00:54:17;20.90;;;18.10;;
57327;SDS011;43162;51.040;18.244;2023-08-17T00:56:45;21.70;;;19.20;;
57327;SDS011;43162;51.040;18.244;2023-08-17T00:59:16;20.10;;;17.90;;
57327;SDS011;43162;51.040;18.244;2023-08-17T01:02:14;20.90;;;17.30;;
57327;SDS011;43162;51.040;18.244;2023-08-17T01:09:15;19.10;;;17.10;;
57327;SDS011;43162;51.040;18.244;2023-08-17T01:12:52;18.50;;;16.60;;
57327;SDS011;43162;51.040;18.244;2023-08-17T01:15:31;18.70;;;16.60;;
57327;SDS011;43162;51.040;18.244;2023-08-17T01:21:29;23.40;;;17.60;;
57327;SDS011;43162;51.040;18.244;2023-08-17T01:24:19;21.80;;;18.70;;
57327;SDS011;43162;51.040;18.244;2023-08-17T01:27:47;23.10;;;18.50;;
57327;SDS011;43162;51.040;18.244;2023-08-17T01:41:46;17.50;;;13.80;;
57327;SDS011;43162;51.040;18.244;2023-08-17T01:45:09;22.20;;;14.50;;
57327;SDS011;43162;51.040;18.244;2023-08-17T02:32:26;12.50;;;7.10;;
57327;SDS011;43162;51.040;18.244;2023-08-17T03:18:49;13.70;;;7.50;;
57327;SDS011;43162;51.040;18.244;2023-08-17T03:22:00;10.80;;;8.10;;
57327;SDS011;43162;51.040;18.244;2023-08-17T03:25:03;12.30;;;7.70;;
57327;SDS011;43162;51.040;18.244;2023-08-17T03:27:52;11.00;;;7.80;;
57327;SDS011;43162;51.040;18.244;2023-08-17T03:33:39;8.70;;;7.20;;
57327;SDS011;43162;51.040;18.244;2023-08-17T03:36:29;9.20;;;7.80;;
57327;SDS011;43162;51.040;18.244;2023-08-17T04:19:38;9.20;;;5.90;;
57327;SDS011;43162;51.040;18.244;2023-08-17T05:04:08;4.90;;;4.00;;
57327;SDS011;43162;51.040;18.244;2023-08-17T05:06:34;5.60;;;3.90;;
57327;SDS011;43162;51.040;18.244;2023-08-17T05:08:59;7.30;;;3.90;;
57327;SDS011;43162;51.040;18.244;2023-08-17T05:11:25;6.30;;;4.20;;
57327;SDS011;43162;51.040;18.244;2023-08-17T05:13:50;5.60;;;3.90;;
57327;SDS011;43162;51.040;18.244;2023-08-17T05:16:15;6.40;;;4.30;;
57327;SDS011;43162;51.040;18.244;2023-08-17T05:18:41;6.70;;;4.70;;
57327;SDS011;43162;51.040;18.244;2023-08-17T05:21:07;7.30;;;4.20;;
57327;SDS011;43162;51.040;18.244;2023-08-17T05:23:32;7.30;;;4.80;;
57327;SDS011;43162;51.040;18.244;2023-08-17T05:26:03;7.20;;;5.30;;
57327;SDS011;43162;51.040;18.244;2023-08-17T05:29:11;10.40;;;5.10;;
57327;SDS011;43162;51.040;18.244;2023-08-17T05:31:38;7.50;;;5.30;;
57327;SDS011;43162;51.040;18.244;2023-08-17T05:34:03;6.70;;;5.20;;
57327;SDS011;43162;51.040;18.244;2023-08-17T05:36:41;6.40;;;5.00;;
57327;SDS011;43162;51.040;18.244;2023-08-17T05:39:06;5.90;;;4.70;;
57327;SDS011;43162;51.040;18.244;2023-08-17T05:41:38;12.20;;;6.00;;
57327;SDS011;43162;51.040;18.244;2023-08-17T05:44:37;5.60;;;4.50;;
57327;SDS011;43162;51.040;18.244;2023-08-17T05:47:36;6.80;;;5.20;;
57327;SDS011;43162;51.040;18.244;2023-08-17T05:50:28;5.70;;;4.60;;
57327;SDS011;43162;51.040;18.244;2023-08-17T05:52:55;5.10;;;4.40;;
57327;SDS011;43162;51.040;18.244;2023-08-17T05:55:20;5.60;;;4.20;;
57327;SDS011;43162;51.040;18.244;2023-08-17T05:57:45;7.90;;;5.30;;
57327;SDS011;43162;51.040;18.244;2023-08-17T06:00:27;6.80;;;4.50;;
57327;SDS011;43162;51.040;18.244;2023-08-17T06:03:01;9.20;;;4.40;;
57327;SDS011;43162;51.040;18.244;2023-08-17T06:05:53;8.30;;;3.40;;
57327;SDS011;43162;51.040;18.244;2023-08-17T06:08:40;6.00;;;3.10;;
57327;SDS011;43162;51.040;18.244;2023-08-17T06:11:24;6.00;;;3.80;;
57327;SDS011;43162;51.040;18.244;2023-08-17T06:13:59;4.50;;;3.90;;
57327;SDS011;43162;51.040;18.244;2023-08-17T06:16:35;8.40;;;3.20;;
57327;SDS011;43162;51.040;18.244;2023-08-17T06:19:20;7.10;;;4.10;;
57327;SDS011;43162;51.040;18.244;2023-08-17T06:34:14;7.70;;;3.70;;
57327;SDS011;43162;51.040;18.244;2023-08-17T06:36:40;7.30;;;4.00;;
57327;SDS011;43162;51.040;18.244;2023-08-17T06:39:06;5.30;;;4.50;;
57327;SDS011;43162;51.040;18.244;2023-08-17T06:41:32;6.40;;;4.10;;
57327;SDS011;43162;51.040;18.244;2023-08-17T06:43:57;6.50;;;3.70;;
57327;SDS011;43162;51.040;18.244;2023-08-17T06:46:23;7.80;;;4.20;;
57327;SDS011;43162;51.040;18.244;2023-08-17T06:48:50;6.30;;;4.00;;
57327;SDS011;43162;51.040;18.244;2023-08-17T06:51:17;7.70;;;4.00;;
57327;SDS011;43162;51.040;18.244;2023-08-17T06:56:52;6.70;;;3.80;;
57327;SDS011;43162;51.040;18.244;2023-08-17T06:59:19;7.00;;;3.60;;
57327;SDS011;43162;51.040;18.244;2023-08-17T07:04:33;7.60;;;3.30;;
57327;SDS011;43162;51.040;18.244;2023-08-17T07:07:04;6.50;;;3.90;;
57327;SDS011;43162;51.040;18.244;2023-08-17T07:12:58;5.90;;;3.70;;
57327;SDS011;43162;51.040;18.244;2023-08-17T07:15:28;4.40;;;2.90;;
57327;SDS011;43162;51.040;18.244;2023-08-17T07:17:57;4.70;;;3.70;;
57327;SDS011;43162;51.040;18.244;2023-08-17T07:20:48;7.80;;;3.80;;
57327;SDS011;43162;51.040;18.244;2023-08-17T07:23:37;6.50;;;3.60;;
57327;SDS011;43162;51.040;18.244;2023-08-17T07:35:55;9.00;;;4.10;;
57327;SDS011;43162;51.040;18.244;2023-08-17T07:38:26;8.30;;;4.20;;
57327;SDS011;43162;51.040;18.244;2023-08-17T07:41:10;6.10;;;3.90;;
57327;SDS011;43162;51.040;18.244;2023-08-17T07:43:41;9.60;;;4.10;;
57327;SDS011;43162;51.040;18.244;2023-08-17T07:46:45;13.20;;;4.10;;
57327;SDS011;43162;51.040;18.244;2023-08-17T07:49:11;6.20;;;4.00;;
57327;SDS011;43162;51.040;18.244;2023-08-17T07:51:39;5.50;;;4.10;;
57327;SDS011;43162;51.040;18.244;2023-08-17T07:54:07;8.90;;;5.00;;
57327;SDS011;43162;51.040;18.244;2023-08-17T08:00:14;7.30;;;4.60;;
57327;SDS011;43162;51.040;18.244;2023-08-17T08:06:38;10.10;;;4.30;;
57327;SDS011;43162;51.040;18.244;2023-08-17T08:09:09;6.90;;;4.70;;
57327;SDS011;43162;51.040;18.244;2023-08-17T08:12:15;13.40;;;5.30;;
57327;SDS011;43162;51.040;18.244;2023-08-17T08:20:58;9.00;;;4.80;;
57327;SDS011;43162;51.040;18.244;2023-08-17T08:23:32;7.20;;;5.00;;
57327;SDS011;43162;51.040;18.244;2023-08-17T08:26:08;12.40;;;5.50;;
57327;SDS011;43162;51.040;18.244;2023-08-17T08:28:34;6.10;;;5.30;;
57327;SDS011;43162;51.040;18.244;2023-08-17T08:31:16;5.80;;;4.70;;
57327;SDS011;43162;51.040;18.244;2023-08-17T08:34:09;5.20;;;4.70;;
57327;SDS011;43162;51.040;18.244;2023-08-17T08:36:34;7.80;;;5.20;;
57327;SDS011;43162;51.040;18.244;2023-08-17T08:38:59;6.30;;;5.40;;
57327;SDS011;43162;51.040;18.244;2023-08-17T08:41:25;10.40;;;5.70;;
57327;SDS011;43162;51.040;18.244;2023-08-17T08:43:52;10.00;;;5.80;;
57327;SDS011;43162;51.040;18.244;2023-08-17T08:46:17;10.30;;;5.80;;
57327;SDS011;43162;51.040;18.244;2023-08-17T08:48:44;9.60;;;6.60;;
57327;SDS011;43162;51.040;18.244;2023-08-17T08:51:10;5.70;;;5.20;;
57327;SDS011;43162;51.040;18.244;2023-08-17T08:53:38;11.30;;;5.80;;
57327;SDS011;43162;51.040;18.244;2023-08-17T08:56:04;6.60;;;5.50;;
57327;SDS011;43162;51.040;18.244;2023-08-17T08:58:32;7.90;;;5.10;;
57327;SDS011;43162;51.040;18.244;2023-08-17T09:00:58;12.00;;;6.30;;
57327;SDS011;43162;51.040;18.244;2023-08-17T09:03:26;6.40;;;5.60;;
57327;SDS011;43162;51.040;18.244;2023-08-17T09:05:51;7.10;;;6.10;;
57327;SDS011;43162;51.040;18.244;2023-08-17T09:08:20;10.90;;;5.80;;
57327;SDS011;43162;51.040;18.244;2023-08-17T09:10:46;11.00;;;6.40;;
57327;SDS011;43162;51.040;18.244;2023-08-17T09:13:12;9.40;;;6.40;;
57327;SDS011;43162;51.040;18.244;2023-08-17T09:15:37;7.30;;;6.00;;
57327;SDS011;43162;51.040;18.244;2023-08-17T09:18:04;9.90;;;6.60;;
57327;SDS011;43162;51.040;18.244;2023-08-17T09:20:37;7.60;;;6.90;;
57327;SDS011;43162;51.040;18.244;2023-08-17T09:23:04;8.10;;;6.20;;
57327;SDS011;43162;51.040;18.244;2023-08-17T09:25:30;7.40;;;6.70;;
57327;SDS011;43162;51.040;18.244;2023-08-17T09:27:56;12.50;;;7.40;;
57327;SDS011;43162;51.040;18.244;2023-08-17T09:30:22;7.90;;;7.20;;
57327;SDS011;43162;51.040;18.244;2023-08-17T09:32:47;9.00;;;7.10;;
57327;SDS011;43162;51.040;18.244;2023-08-17T09:35:14;11.50;;;7.40;;
57327;SDS011;43162;51.040;18.244;2023-08-17T09:37:41;14.60;;;8.00;;
57327;SDS011;43162;51.040;18.244;2023-08-17T09:40:06;8.00;;;6.80;;
57327;SDS011;43162;51.040;18.244;2023-08-17T09:42:35;9.90;;;7.60;;
57327;SDS011;43162;51.040;18.244;2023-08-17T09:45:03;9.30;;;6.40;;
57327;SDS011;43162;51.040;18.244;2023-08-17T09:47:29;11.40;;;6.60;;
57327;SDS011;43162;51.040;18.244;2023-08-17T09:49:55;10.10;;;6.70;;
57327;SDS011;43162;51.040;18.244;2023-08-17T09:52:21;12.40;;;7.10;;
57327;SDS011;43162;51.040;18.244;2023-08-17T09:54:46;12.30;;;6.90;;
57327;SDS011;43162;51.040;18.244;2023-08-17T09:57:13;11.50;;;7.60;;
57327;SDS011;43162;51.040;18.244;2023-08-17T09:59:39;13.30;;;7.90;;
57327;SDS011;43162;51.040;18.244;2023-08-17T10:02:05;9.90;;;6.70;;
57327;SDS011;43162;51.040;18.244;2023-08-17T10:04:36;10.90;;;6.70;;
57327;SDS011;43162;51.040;18.244;2023-08-17T10:07:03;9.90;;;7.30;;
57327;SDS011;43162;51.040;18.244;2023-08-17T10:09:31;11.20;;;8.70;;
57327;SDS011;43162;51.040;18.244;2023-08-17T10:12:01;12.40;;;7.90;;
57327;SDS011;43162;51.040;18.244;2023-08-17T10:14:31;9.00;;;6.20;;
57327;SDS011;43162;51.040;18.244;2023-08-17T10:19:30;10.20;;;6.60;;
57327;SDS011;43162;51.040;18.244;2023-08-17T10:21:58;9.50;;;7.30;;
57327;SDS011;43162;51.040;18.244;2023-08-17T10:24:26;11.20;;;7.40;;
57327;SDS011;43162;51.040;18.244;2023-08-17T10:26:51;9.90;;;7.70;;
57327;SDS011;43162;51.040;18.244;2023-08-17T10:29:19;10.50;;;7.20;;
57327;SDS011;43162;51.040;18.244;2023-08-17T10:31:46;8.00;;;7.20;;
57327;SDS011;43162;51.040;18.244;2023-08-17T10:34:13;11.90;;;7.20;;
57327;SDS011;43162;51.040;18.244;2023-08-17T10:36:40;10.80;;;8.10;;
57327;SDS011;43162;51.040;18.244;2023-08-17T10:42:01;10.20;;;9.20;;
57327;SDS011;43162;51.040;18.244;2023-08-17T10:44:45;10.70;;;8.30;;
57327;SDS011;43162;51.040;18.244;2023-08-17T10:49:50;10.20;;;7.30;;
57327;SDS011;43162;51.040;18.244;2023-08-17T10:52:45;8.80;;;7.90;;
57327;SDS011;43162;51.040;18.244;2023-08-17T10:55:44;11.00;;;7.80;;
57327;SDS011;43162;51.040;18.244;2023-08-17T10:58:38;9.80;;;7.50;;
57327;SDS011;43162;51.040;18.244;2023-08-17T11:01:35;9.80;;;7.80;;
57327;SDS011;43162;51.040;18.244;2023-08-17T11:04:26;9.80;;;7.30;;
57327;SDS011;43162;51.040;18.244;2023-08-17T11:07:25;10.30;;;7.40;;
57327;SDS011;43162;51.040;18.244;2023-08-17T11:13:16;13.00;;;6.50;;
57327;SDS011;43162;51.040;18.244;2023-08-17T11:16:10;7.00;;;6.20;;
57327;SDS011;43162;51.040;18.244;2023-08-17T11:19:03;7.80;;;5.40;;
57327;SDS011;43162;51.040;18.244;2023-08-17T11:21:56;6.90;;;5.80;;
57327;SDS011;43162;51.040;18.244;2023-08-17T11:24:49;7.10;;;5.50;;
57327;SDS011;43162;51.040;18.244;2023-08-17T11:27:42;8.80;;;5.20;;
57327;SDS011;43162;51.040;18.244;2023-08-17T11:30:37;11.30;;;6.00;;
57327;SDS011;43162;51.040;18.244;2023-08-17T11:33:33;8.10;;;6.10;;
57327;SDS011;43162;51.040;18.244;2023-08-17T11:36:27;8.10;;;5.20;;
57327;SDS011;43162;51.040;18.244;2023-08-17T11:39:22;6.40;;;5.80;;
57327;SDS011;43162;51.040;18.244;2023-08-17T11:42:12;8.70;;;5.00;;
57327;SDS011;43162;51.040;18.244;2023-08-17T11:45:01;9.00;;;4.90;;
57327;SDS011;43162;51.040;18.244;2023-08-17T11:47:55;5.80;;;4.70;;
57327;SDS011;43162;51.040;18.244;2023-08-17T11:50:48;6.10;;;4.80;;
57327;SDS011;43162;51.040;18.244;2023-08-17T11:53:39;5.20;;;4.80;;
57327;SDS011;43162;51.040;18.244;2023-08-17T11:56:34;5.70;;;4.10;;
57327;SDS011;43162;51.040;18.244;2023-08-17T11:59:26;5.20;;;4.30;;
57327;SDS011;43162;51.040;18.244;2023-08-17T12:02:28;6.90;;;5.00;;
57327;SDS011;43162;51.040;18.244;2023-08-17T12:05:22;5.40;;;4.80;;
57327;SDS011;43162;51.040;18.244;2023-08-17T12:08:17;6.30;;;4.90;;
57327;SDS011;43162;51.040;18.244;2023-08-17T12:11:09;8.20;;;5.50;;
57327;SDS011;43162;51.040;18.244;2023-08-17T12:14:08;7.80;;;5.00;;
57327;SDS011;43162;51.040;18.244;2023-08-17T12:17:03;12.80;;;5.60;;
57327;SDS011;43162;51.040;18.244;2023-08-17T12:19:58;5.90;;;5.40;;
57327;SDS011;43162;51.040;18.244;2023-08-17T12:22:49;9.70;;;4.80;;
57327;SDS011;43162;51.040;18.244;2023-08-17T12:25:44;8.10;;;4.90;;
57327;SDS011;43162;51.040;18.244;2023-08-17T12:31:26;8.10;;;4.60;;
57327;SDS011;43162;51.040;18.244;2023-08-17T12:34:22;8.20;;;4.20;;
57327;SDS011;43162;51.040;18.244;2023-08-17T12:37:18;3.70;;;3.40;;
57327;SDS011;43162;51.040;18.244;2023-08-17T12:39:44;4.40;;;4.00;;
57327;SDS011;43162;51.040;18.244;2023-08-17T12:42:09;4.20;;;3.80;;
57327;SDS011;43162;51.040;18.244;2023-08-17T12:44:34;4.50;;;3.40;;
57327;SDS011;43162;51.040;18.244;2023-08-17T12:47:01;5.20;;;3.70;;
57327;SDS011;43162;51.040;18.244;2023-08-17T12:49:26;4.70;;;3.60;;
57327;SDS011;43162;51.040;18.244;2023-08-17T12:51:52;4.20;;;3.80;;
57327;SDS011;43162;51.040;18.244;2023-08-17T12:54:17;4.70;;;4.30;;
57327;SDS011;43162;51.040;18.244;2023-08-17T12:56:44;5.60;;;4.20;;
57327;SDS011;43162;51.040;18.244;2023-08-17T12:59:09;5.10;;;3.80;;
57327;SDS011;43162;51.040;18.244;2023-08-17T13:01:35;5.00;;;4.00;;
57327;SDS011;43162;51.040;18.244;2023-08-17T13:04:01;4.60;;;3.70;;
57327;SDS011;43162;51.040;18.244;2023-08-17T13:06:26;6.50;;;4.00;;
57327;SDS011;43162;51.040;18.244;2023-08-17T13:08:52;4.80;;;4.30;;
57327;SDS011;43162;51.040;18.244;2023-08-17T13:11:18;4.60;;;4.00;;
57327;SDS011;43162;51.040;18.244;2023-08-17T13:13:43;5.60;;;4.70;;
57327;SDS011;43162;51.040;18.244;2023-08-17T13:16:13;4.80;;;4.30;;
57327;SDS011;43162;51.040;18.244;2023-08-17T13:18:39;7.90;;;3.90;;
57327;SDS011;43162;51.040;18.244;2023-08-17T13:21:04;5.10;;;3.90;;
57327;SDS011;43162;51.040;18.244;2023-08-17T13:23:30;10.30;;;4.00;;
57327;SDS011;43162;51.040;18.244;2023-08-17T13:25:56;4.10;;;3.80;;
57327;SDS011;43162;51.040;18.244;2023-08-17T13:28:21;6.50;;;4.10;;
57327;SDS011;43162;51.040;18.244;2023-08-17T13:30:47;4.40;;;3.70;;
57327;SDS011;43162;51.040;18.244;2023-08-17T13:33:12;5.50;;;3.50;;
57327;SDS011;43162;51.040;18.244;2023-08-17T13:35:38;5.30;;;3.40;;
57327;SDS011;43162;51.040;18.244;2023-08-17T13:38:04;3.70;;;3.30;;
57327;SDS011;43162;51.040;18.244;2023-08-17T13:40:30;4.80;;;3.40;;
57327;SDS011;43162;51.040;18.244;2023-08-17T13:42:56;6.30;;;3.70;;
57327;SDS011;43162;51.040;18.244;2023-08-17T13:45:24;4.30;;;3.20;;
57327;SDS011;43162;51.040;18.244;2023-08-17T13:47:49;3.50;;;3.20;;
57327;SDS011;43162;51.040;18.244;2023-08-17T13:50:15;3.80;;;3.40;;
57327;SDS011;43162;51.040;18.244;2023-08-17T13:52:40;12.00;;;4.70;;
57327;SDS011;43162;51.040;18.244;2023-08-17T13:55:06;6.60;;;2.70;;
57327;SDS011;43162;51.040;18.244;2023-08-17T13:57:32;7.60;;;2.40;;
57327;SDS011;43162;51.040;18.244;2023-08-17T13:59:57;3.70;;;1.80;;
57327;SDS011;43162;51.040;18.244;2023-08-17T14:02:23;7.10;;;2.10;;
57327;SDS011;43162;51.040;18.244;2023-08-17T14:04:48;2.60;;;1.90;;
57327;SDS011;43162;51.040;18.244;2023-08-17T14:07:14;1.60;;;1.40;;
57327;SDS011;43162;51.040;18.244;2023-08-17T14:09:40;4.30;;;1.90;;
57327;SDS011;43162;51.040;18.244;2023-08-17T14:12:06;4.20;;;2.20;;
57327;SDS011;43162;51.040;18.244;2023-08-17T14:14:32;7.20;;;3.10;;
57327;SDS011;43162;51.040;18.244;2023-08-17T14:16:58;4.70;;;2.90;;
57327;SDS011;43162;51.040;18.244;2023-08-17T14:19:24;3.30;;;2.70;;
57327;SDS011;43162;51.040;18.244;2023-08-17T14:21:49;4.70;;;2.90;;
57327;SDS011;43162;51.040;18.244;2023-08-17T14:24:15;9.20;;;3.80;;
57327;SDS011;43162;51.040;18.244;2023-08-17T14:26:41;6.10;;;3.50;;
57327;SDS011;43162;51.040;18.244;2023-08-17T14:29:06;15.40;;;4.50;;
57327;SDS011;43162;51.040;18.244;2023-08-17T14:31:32;14.20;;;4.90;;
57327;SDS011;43162;51.040;18.244;2023-08-17T14:33:58;16.50;;;4.90;;
57327;SDS011;43162;51.040;18.244;2023-08-17T14:36:23;21.10;;;5.50;;
57327;SDS011;43162;51.040;18.244;2023-08-17T14:38:49;17.30;;;4.80;;
57327;SDS011;43162;51.040;18.244;2023-08-17T14:41:15;10.80;;;3.70;;
57327;SDS011;43162;51.040;18.244;2023-08-17T14:43:41;12.10;;;3.90;;
57327;SDS011;43162;51.040;18.244;2023-08-17T14:46:06;4.60;;;3.40;;
57327;SDS011;43162;51.040;18.244;2023-08-17T14:48:32;13.70;;;4.20;;
57327;SDS011;43162;51.040;18.244;2023-08-17T14:50:58;9.30;;;3.60;;
57327;SDS011;43162;51.040;18.244;2023-08-17T14:53:23;7.90;;;4.20;;
57327;SDS011;43162;51.040;18.244;2023-08-17T14:55:48;9.70;;;3.30;;
57327;SDS011;43162;51.040;18.244;2023-08-17T14:58:14;6.80;;;4.30;;
57327;SDS011;43162;51.040;18.244;2023-08-17T15:00:40;10.10;;;3.60;;
57327;SDS011;43162;51.040;18.244;2023-08-17T15:03:06;8.80;;;3.90;;
57327;SDS011;43162;51.040;18.244;2023-08-17T15:05:32;4.30;;;3.30;;
57327;SDS011;43162;51.040;18.244;2023-08-17T15:08:01;6.90;;;3.10;;
57327;SDS011;43162;51.040;18.244;2023-08-17T15:10:26;5.90;;;3.40;;
57327;SDS011;43162;51.040;18.244;2023-08-17T15:12:52;6.20;;;3.50;;
57327;SDS011;43162;51.040;18.244;2023-08-17T15:15:18;5.80;;;3.20;;
57327;SDS011;43162;51.040;18.244;2023-08-17T15:17:43;5.60;;;3.00;;
57327;SDS011;43162;51.040;18.244;2023-08-17T15:20:09;7.50;;;2.70;;
57327;SDS011;43162;51.040;18.244;2023-08-17T15:22:35;4.40;;;3.20;;
57327;SDS011;43162;51.040;18.244;2023-08-17T15:25:01;5.10;;;3.30;;
57327;SDS011;43162;51.040;18.244;2023-08-17T15:27:27;5.10;;;2.70;;
57327;SDS011;43162;51.040;18.244;2023-08-17T15:29:52;5.20;;;3.30;;
57327;SDS011;43162;51.040;18.244;2023-08-17T15:32:18;5.90;;;3.20;;
57327;SDS011;43162;51.040;18.244;2023-08-17T15:34:43;7.70;;;3.30;;
57327;SDS011;43162;51.040;18.244;2023-08-17T15:37:09;4.40;;;3.20;;
57327;SDS011;43162;51.040;18.244;2023-08-17T15:39:34;5.10;;;3.10;;
57327;SDS011;43162;51.040;18.244;2023-08-17T15:42:00;5.50;;;3.60;;
57327;SDS011;43162;51.040;18.244;2023-08-17T15:44:25;6.00;;;3.90;;
57327;SDS011;43162;51.040;18.244;2023-08-17T15:46:51;6.00;;;3.80;;
57327;SDS011;43162;51.040;18.244;2023-08-17T15:49:17;3.30;;;3.00;;
57327;SDS011;43162;51.040;18.244;2023-08-17T15:51:43;5.10;;;3.50;;
57327;SDS011;43162;51.040;18.244;2023-08-17T15:54:08;4.90;;;3.60;;
57327;SDS011;43162;51.040;18.244;2023-08-17T15:56:34;6.30;;;3.80;;
57327;SDS011;43162;51.040;18.244;2023-08-17T15:59:01;5.00;;;4.10;;
57327;SDS011;43162;51.040;18.244;2023-08-17T16:01:27;7.40;;;3.90;;
57327;SDS011;43162;51.040;18.244;2023-08-17T16:03:53;6.20;;;3.90;;
57327;SDS011;43162;51.040;18.244;2023-08-17T16:06:19;3.20;;;3.00;;
57327;SDS011;43162;51.040;18.244;2023-08-17T16:08:44;8.20;;;3.60;;
57327;SDS011;43162;51.040;18.244;2023-08-17T16:11:10;6.50;;;3.90;;
57327;SDS011;43162;51.040;18.244;2023-08-17T16:13:37;14.90;;;8.90;;
57327;SDS011;43162;51.040;18.244;2023-08-17T16:16:03;14.60;;;8.70;;
57327;SDS011;43162;51.040;18.244;2023-08-17T16:18:28;13.30;;;7.60;;
57327;SDS011;43162;51.040;18.244;2023-08-17T16:20:54;10.00;;;7.80;;
57327;SDS011;43162;51.040;18.244;2023-08-17T16:23:20;7.30;;;5.10;;
57327;SDS011;43162;51.040;18.244;2023-08-17T16:25:45;8.20;;;4.50;;
57327;SDS011;43162;51.040;18.244;2023-08-17T16:28:11;8.20;;;4.30;;
57327;SDS011;43162;51.040;18.244;2023-08-17T16:30:37;5.10;;;4.30;;
57327;SDS011;43162;51.040;18.244;2023-08-17T16:33:04;7.00;;;4.30;;
57327;SDS011;43162;51.040;18.244;2023-08-17T16:35:30;4.40;;;3.90;;
57327;SDS011;43162;51.040;18.244;2023-08-17T16:37:55;4.60;;;3.80;;
57327;SDS011;43162;51.040;18.244;2023-08-17T16:40:21;8.80;;;3.70;;
57327;SDS011;43162;51.040;18.244;2023-08-17T16:42:47;4.50;;;2.80;;
57327;SDS011;43162;51.040;18.244;2023-08-17T16:45:14;5.60;;;3.70;;
57327;SDS011;43162;51.040;18.244;2023-08-17T16:47:41;6.00;;;3.70;;
57327;SDS011;43162;51.040;18.244;2023-08-17T16:50:07;5.60;;;4.20;;
57327;SDS011;43162;51.040;18.244;2023-08-17T16:52:33;4.20;;;3.10;;
57327;SDS011;43162;51.040;18.244;2023-08-17T16:54:58;3.40;;;2.80;;
57327;SDS011;43162;51.040;18.244;2023-08-17T16:57:24;4.30;;;3.50;;
57327;SDS011;43162;51.040;18.244;2023-08-17T16:59:50;6.10;;;3.40;;
57327;SDS011;43162;51.040;18.244;2023-08-17T17:02:15;4.50;;;3.70;;
57327;SDS011;43162;51.040;18.244;2023-08-17T17:04:42;5.10;;;4.50;;
57327;SDS011;43162;51.040;18.244;2023-08-17T17:07:07;7.10;;;5.90;;
57327;SDS011;43162;51.040;18.244;2023-08-17T17:09:33;7.20;;;5.80;;
57327;SDS011;43162;51.040;18.244;2023-08-17T17:11:59;9.80;;;5.80;;
57327;SDS011;43162;51.040;18.244;2023-08-17T17:14:24;9.10;;;5.10;;
57327;SDS011;43162;51.040;18.244;2023-08-17T17:16:50;5.40;;;4.80;;
57327;SDS011;43162;51.040;18.244;2023-08-17T17:19:15;5.70;;;3.90;;
57327;SDS011;43162;51.040;18.244;2023-08-17T17:21:43;4.60;;;3.80;;
57327;SDS011;43162;51.040;18.244;2023-08-17T17:24:09;6.10;;;3.90;;
57327;SDS011;43162;51.040;18.244;2023-08-17T17:26:35;3.90;;;3.50;;
57327;SDS011;43162;51.040;18.244;2023-08-17T17:29:01;5.90;;;3.80;;
57327;SDS011;43162;51.040;18.244;2023-08-17T17:31:27;5.30;;;3.60;;
57327;SDS011;43162;51.040;18.244;2023-08-17T17:33:53;4.40;;;3.70;;
57327;SDS011;43162;51.040;18.244;2023-08-17T17:36:18;4.90;;;4.50;;
57327;SDS011;43162;51.040;18.244;2023-08-17T17:38:44;4.60;;;3.80;;
57327;SDS011;43162;51.040;18.244;2023-08-17T17:41:09;6.20;;;4.40;;
57327;SDS011;43162;51.040;18.244;2023-08-17T17:43:35;5.60;;;3.90;;
57327;SDS011;43162;51.040;18.244;2023-08-17T17:46:01;4.60;;;4.20;;
57327;SDS011;43162;51.040;18.244;2023-08-17T17:48:26;5.60;;;4.60;;
57327;SDS011;43162;51.040;18.244;2023-08-17T17:50:52;6.70;;;4.30;;
57327;SDS011;43162;51.040;18.244;2023-08-17T17:53:18;8.10;;;5.00;;
57327;SDS011;43162;51.040;18.244;2023-08-17T17:55:44;5.90;;;4.60;;
57327;SDS011;43162;51.040;18.244;2023-08-17T17:58:09;8.00;;;5.30;;
57327;SDS011;43162;51.040;18.244;2023-08-17T18:00:35;8.10;;;5.10;;
57327;SDS011;43162;51.040;18.244;2023-08-17T18:03:10;7.10;;;4.60;;
57327;SDS011;43162;51.040;18.244;2023-08-17T18:05:39;6.70;;;4.20;;
57327;SDS011;43162;51.040;18.244;2023-08-17T18:08:05;5.80;;;4.80;;
57327;SDS011;43162;51.040;18.244;2023-08-17T18:10:30;6.10;;;4.80;;
57327;SDS011;43162;51.040;18.244;2023-08-17T18:12:56;5.80;;;5.00;;
57327;SDS011;43162;51.040;18.244;2023-08-17T18:15:23;9.40;;;6.40;;
57327;SDS011;43162;51.040;18.244;2023-08-17T18:17:49;6.40;;;4.90;;
57327;SDS011;43162;51.040;18.244;2023-08-17T18:20:14;7.40;;;5.80;;
57327;SDS011;43162;51.040;18.244;2023-08-17T18:22:40;6.70;;;4.90;;
57327;SDS011;43162;51.040;18.244;2023-08-17T18:25:06;5.20;;;4.40;;
57327;SDS011;43162;51.040;18.244;2023-08-17T18:27:36;6.40;;;4.30;;
57327;SDS011;43162;51.040;18.244;2023-08-17T18:30:03;6.10;;;4.20;;
57327;SDS011;43162;51.040;18.244;2023-08-17T18:32:29;6.60;;;4.30;;
57327;SDS011;43162;51.040;18.244;2023-08-17T18:34:55;7.70;;;4.90;;
57327;SDS011;43162;51.040;18.244;2023-08-17T18:37:21;5.90;;;4.70;;
57327;SDS011;43162;51.040;18.244;2023-08-17T18:39:46;4.60;;;4.00;;
57327;SDS011;43162;51.040;18.244;2023-08-17T18:42:13;4.40;;;3.70;;
57327;SDS011;43162;51.040;18.244;2023-08-17T18:44:39;9.30;;;4.20;;
57327;SDS011;43162;51.040;18.244;2023-08-17T18:47:05;4.60;;;4.10;;
57327;SDS011;43162;51.040;18.244;2023-08-17T18:49:31;5.50;;;4.50;;
57327;SDS011;43162;51.040;18.244;2023-08-17T18:51:56;5.70;;;5.10;;
57327;SDS011;43162;51.040;18.244;2023-08-17T18:54:22;5.00;;;4.20;;
57327;SDS011;43162;51.040;18.244;2023-08-17T18:56:48;5.40;;;4.60;;
57327;SDS011;43162;51.040;18.244;2023-08-17T18:59:13;5.10;;;4.70;;
57327;SDS011;43162;51.040;18.244;2023-08-17T19:01:39;5.50;;;3.70;;
57327;SDS011;43162;51.040;18.244;2023-08-17T19:04:05;6.60;;;3.50;;
57327;SDS011;43162;51.040;18.244;2023-08-17T19:06:30;5.80;;;5.10;;
57327;SDS011;43162;51.040;18.244;2023-08-17T19:08:56;5.60;;;3.80;;
57327;SDS011;43162;51.040;18.244;2023-08-17T19:11:21;5.00;;;3.60;;
57327;SDS011;43162;51.040;18.244;2023-08-17T19:13:47;3.60;;;3.30;;
57327;SDS011;43162;51.040;18.244;2023-08-17T19:16:13;7.30;;;3.90;;
57327;SDS011;43162;51.040;18.244;2023-08-17T19:18:38;5.70;;;3.50;;
57327;SDS011;43162;51.040;18.244;2023-08-17T19:21:04;4.40;;;3.40;;